Brumado, Brazil
Current Conditions -  °F | °C
As of 5:00 AM on Thursday 23 Oct 2014 (Local Time) from SBQV Reporting Station
Drizzle Drizzle  
Wind Chill: 63°   Ceiling: 300
Heat Index: 63°   Visibility: 1.8mi
Dew Point: 63°   Wind: 10mph
Humidity: 100%   Direction: 130°SE
Pressure: 30.15"   Gusts: NA
Location:  14.2°S, 41.67°W
Report Text: SBQV 230800Z 13009KT 3000 -DZ OVC003 17/17 Q1021
Loading
Personal Weather Stations






























Interactive Weather Map
Tropical Storm Tracking
New forecast layout! Learn more

10-Day Weather Forecast

Advertisements
Track Severe Weather on mobile